Time;durP1;ratioP1;P1;durP2;ratioP2;P2;SDS_P1;SDS_P2;PMS_P1;PMS_P2;Temp;Humidity;BMP_temperature;BMP_pressure;BME280_temperature;BME280_humidity;BME280_pressure;Samples;Min_cycle;Max_cycle;Signal;HPM_P1;HPM_P2
2020/12/02 00:02:20;;;;;;;65.83;25.17;;;;;;;-5.62;82.20;99685.80;2236702;80;21753;-60
2020/12/02 00:05:21;;;;;;;61.73;25.68;;;;;;;-5.83;81.96;99692.67;2236476;80;21260;-59
2020/12/02 00:08:22;;;;;;;59.00;25.85;;;;;;;-5.98;82.23;99694.96;2236401;80;21145;-59
2020/12/02 00:11:24;;;;;;;65.37;25.85;;;;;;;-6.04;82.47;99693.57;2236518;80;21719;-59
2020/12/02 00:14:25;;;;;;;67.58;27.40;;;;;;;-6.09;82.64;99694.77;2236398;80;21576;-59
2020/12/02 00:17:26;;;;;;;70.62;29.55;;;;;;;-6.11;82.62;99692.15;2236502;80;21276;-58
2020/12/02 00:20:27;;;;;;;67.15;27.58;;;;;;;-6.07;83.00;99696.92;2236248;80;21138;-59
2020/12/02 00:23:29;;;;;;;68.62;27.65;;;;;;;-6.05;82.69;99701.63;2236791;80;21129;-59
2020/12/02 00:26:30;;;;;;;62.13;25.35;;;;;;;-5.99;82.59;99696.66;2236818;80;21283;-59
2020/12/02 00:29:31;;;;;;;70.40;27.85;;;;;;;-5.97;82.49;99704.36;2247942;78;21566;-60
2020/12/02 00:32:32;;;;;;;67.82;29.12;;;;;;;-5.98;82.32;99706.03;2269166;78;21264;-60
2020/12/02 00:35:34;;;;;;;70.32;29.45;;;;;;;-6.03;82.36;99705.48;2269654;78;21759;-59
2020/12/02 00:38:35;;;;;;;68.97;28.17;;;;;;;-6.02;82.49;99708.50;2269161;78;21276;-59
2020/12/02 00:41:36;;;;;;;71.82;28.32;;;;;;;-6.01;82.39;99706.41;2269334;78;21130;-59
2020/12/02 00:44:37;;;;;;;72.85;29.30;;;;;;;-5.96;82.76;99708.58;2269402;78;21578;-59
2020/12/02 00:47:38;;;;;;;72.20;28.98;;;;;;;-5.95;82.21;99703.92;2269170;78;21276;-59
2020/12/02 00:50:40;;;;;;;62.78;26.17;;;;;;;-6.02;82.20;99715.77;2269375;78;21257;-58
2020/12/02 00:53:41;;;;;;;66.25;27.42;;;;;;;-6.03;82.60;99712.76;2269302;78;21295;-60
2020/12/02 00:56:42;;;;;;;66.77;28.00;;;;;;;-6.03;82.42;99713.16;2269301;78;21265;-59
2020/12/02 00:59:44;;;;;;;67.27;26.13;;;;;;;-6.09;82.48;99710.09;2269488;78;21308;-59
2020/12/02 01:02:45;;;;;;;65.35;26.77;;;;;;;-6.14;82.87;99708.70;2269348;78;21308;-59
2020/12/02 01:05:46;;;;;;;67.85;27.73;;;;;;;-6.08;83.23;99716.90;2269299;78;21728;-59
2020/12/02 01:08:50;;;;;;;64.90;25.30;;;;;;;-6.10;82.79;99709.20;2269189;78;21279;-60
2020/12/02 01:11:51;;;;;;;66.45;27.20;;;;;;;-6.13;82.93;99709.16;2269224;78;21254;-59
2020/12/02 01:14:53;;;;;;;71.28;29.67;;;;;;;-6.15;82.88;99712.50;2269323;78;21125;-60
2020/12/02 01:17:54;;;;;;;73.83;28.33;;;;;;;-6.20;82.49;99716.66;2269935;78;21292;-58
2020/12/02 01:20:55;;;;;;;67.42;26.37;;;;;;;-6.32;82.44;99711.74;2269157;78;21738;-60
2020/12/02 01:23:56;;;;;;;68.47;27.32;;;;;;;-6.41;82.38;99708.12;2269141;78;21708;-60
2020/12/02 01:26:58;;;;;;;69.25;27.20;;;;;;;-6.53;81.90;99707.03;2269679;78;21697;-59
2020/12/02 01:29:59;;;;;;;163.92;55.75;;;;;;;-6.57;81.98;99703.10;2255625;78;21272;-60
2020/12/02 01:33:00;;;;;;;233.57;78.20;;;;;;;-6.50;82.00;99708.36;2236577;80;21697;-59
2020/12/02 01:36:02;;;;;;;273.43;92.85;;;;;;;-6.43;81.91;99704.69;2236544;80;21288;-60
2020/12/02 01:39:03;;;;;;;278.00;89.75;;;;;;;-6.42;81.76;99704.72;2236476;80;21144;-60
2020/12/02 01:42:04;;;;;;;236.15;78.97;;;;;;;-6.48;81.64;99703.29;2236580;80;21698;-60
2020/12/02 01:45:05;;;;;;;230.72;76.77;;;;;;;-6.50;81.81;99706.23;2236358;80;21161;-59
2020/12/02 01:48:06;;;;;;;201.40;69.53;;;;;;;-6.53;81.82;99704.90;2236697;80;21287;-60
2020/12/02 01:51:08;;;;;;;202.13;67.95;;;;;;;-6.55;81.61;99705.27;2236151;80;21291;-60
2020/12/02 01:54:09;;;;;;;96.87;37.28;;;;;;;-6.53;81.78;99706.17;2236304;80;21126;-60
2020/12/02 01:57:10;;;;;;;134.18;47.13;;;;;;;-6.48;81.92;99704.56;2236557;80;21105;-60
2020/12/02 02:00:12;;;;;;;91.42;35.55;;;;;;;-6.43;81.76;99706.81;2236305;80;21141;-60
2020/12/02 02:03:13;;;;;;;;;;;;;;;-6.35;81.70;99712.08;2239296;80;21411;-59
2020/12/02 02:06:15;;;;;;;87.60;30.82;;;;;;;-6.29;81.75;99709.25;2236739;80;20216;-60
2020/12/02 02:09:16;;;;;;;98.35;34.15;;;;;;;-6.23;81.77;99708.91;2236267;80;21596;-60
2020/12/02 02:12:17;;;;;;;92.70;33.98;;;;;;;-6.18;81.78;99703.07;2236529;80;21283;-60
2020/12/02 02:15:18;;;;;;;76.37;30.23;;;;;;;-6.09;81.71;99712.64;2236689;80;21267;-59
2020/12/02 02:18:20;;;;;;;83.00;31.68;;;;;;;-5.96;81.44;99700.91;2236167;80;21133;-59
2020/12/02 02:21:21;;;;;;;98.03;36.45;;;;;;;-5.89;81.34;99707.02;2236462;80;21545;-59
2020/12/02 02:24:22;;;;;;;90.10;32.78;;;;;;;-5.76;81.48;99703.85;2236138;80;21268;-59
2020/12/02 02:27:24;;;;;;;77.37;28.80;;;;;;;-5.68;81.31;99700.19;2236485;80;21791;-58
2020/12/02 02:30:25;;;;;;;101.15;38.23;;;;;;;-5.59;81.71;99707.61;2244037;78;21245;-59
2020/12/02 02:33:26;;;;;;;93.97;33.13;;;;;;;-5.37;81.85;99706.72;2253458;79;21111;-59
2020/12/02 02:36:28;;;;;;;79.80;31.87;;;;;;;-5.29;81.82;99697.88;2253797;79;21538;-60
2020/12/02 02:39:29;;;;;;;73.97;30.13;;;;;;;-5.20;82.40;99698.45;2253289;79;21142;-59
2020/12/02 02:42:30;;;;;;;81.02;30.77;;;;;;;-5.09;83.36;99693.09;2253147;79;21138;-58
2020/12/02 02:45:32;;;;;;;75.42;28.42;;;;;;;-4.91;83.64;99694.67;2253258;78;21561;-59
2020/12/02 02:48:33;;;;;;;76.10;29.82;;;;;;;-4.73;83.94;99695.78;2253437;79;21850;-59
2020/12/02 02:51:34;;;;;;;70.57;29.87;;;;;;;-4.60;84.36;99691.27;2253209;79;21590;-60
2020/12/02 02:54:36;;;;;;;72.40;28.45;;;;;;;-4.46;84.51;99690.63;2253277;79;21708;-58
2020/12/02 02:57:37;;;;;;;76.92;30.75;;;;;;;-4.34;84.53;99689.48;2253477;79;21269;-59
2020/12/02 03:00:39;;;;;;;68.05;28.47;;;;;;;-4.21;84.60;99694.34;2253128;78;21281;-59
2020/12/02 03:03:41;;;;;;;69.50;27.73;;;;;;;-4.15;84.58;99697.01;2253294;79;21574;-59
2020/12/02 03:06:42;;;;;;;66.57;27.50;;;;;;;-4.08;84.74;99695.36;2253517;79;21295;-60
2020/12/02 03:09:43;;;;;;;69.50;30.05;;;;;;;-4.03;84.88;99691.16;2253064;79;21277;-60
2020/12/02 03:12:44;;;;;;;73.83;29.75;;;;;;;-3.95;84.59;99694.69;2253062;79;21752;-60
2020/12/02 03:15:46;;;;;;;72.72;29.10;;;;;;;-3.87;84.25;99696.05;2253127;79;21693;-59
2020/12/02 03:18:47;;;;;;;64.40;27.40;;;;;;;-3.81;84.75;99692.26;2253086;79;21705;-60
2020/12/02 03:21:48;;;;;;;73.50;28.90;;;;;;;-3.84;84.37;99692.23;2253431;79;21138;-59
2020/12/02 03:24:49;;;;;;;71.55;28.30;;;;;;;-3.85;84.39;99696.51;2253123;79;21718;-60
2020/12/02 03:27:50;;;;;;;79.82;32.13;;;;;;;-3.83;84.25;99693.52;2253079;78;21249;-60
2020/12/02 03:30:52;;;;;;;71.67;29.90;;;;;;;-3.75;84.14;99696.19;2244047;79;21136;-60
2020/12/02 03:33:53;;;;;;;66.20;26.07;;;;;;;-3.76;84.00;99689.77;2236531;80;21576;-60
2020/12/02 03:36:54;;;;;;;57.70;22.52;;;;;;;-3.77;83.96;99695.73;2236435;80;21110;-59
2020/12/02 03:39:56;;;;;;;58.35;24.05;;;;;;;-3.78;84.32;99698.70;2236608;80;21247;-59
2020/12/02 03:42:57;;;;;;;56.00;24.12;;;;;;;-3.80;84.06;99698.27;2236970;80;21283;-59
2020/12/02 03:45:58;;;;;;;63.60;25.00;;;;;;;-3.81;84.07;99693.54;2236305;80;21141;-60
2020/12/02 03:48:59;;;;;;;57.05;24.47;;;;;;;-3.80;84.37;99703.39;2236348;80;21145;-61
2020/12/02 03:52:01;;;;;;;63.68;24.82;;;;;;;-3.79;84.27;99697.40;2236345;80;21165;-61
2020/12/02 03:55:02;;;;;;;57.58;23.67;;;;;;;-3.80;84.39;99691.86;2236538;80;21276;-60
2020/12/02 03:58:03;;;;;;;66.97;27.45;;;;;;;-3.77;84.17;99703.42;2236936;80;21685;-59
2020/12/02 04:01:04;;;;;;;63.80;26.37;;;;;;;-3.79;84.34;99708.94;2236419;80;21612;-60
2020/12/02 04:04:05;;;;;;;57.50;23.77;;;;;;;-3.79;84.26;99711.50;2236296;80;21137;-59
2020/12/02 04:07:06;;;;;;;58.92;24.15;;;;;;;-3.78;84.32;99712.80;2236904;79;21271;-59
2020/12/02 04:10:07;;;;;;;62.27;24.50;;;;;;;-3.77;84.26;99706.84;2236259;80;21295;-59
2020/12/02 04:13:09;;;;;;;60.30;24.93;;;;;;;-3.74;84.04;99710.71;2236674;80;21573;-60
2020/12/02 04:16:10;;;;;;;62.30;24.77;;;;;;;-3.74;84.11;99715.84;2236277;80;21439;-60
2020/12/02 04:19:12;;;;;;;55.90;22.85;;;;;;;-3.72;84.17;99719.70;2236548;80;21260;-58
2020/12/02 04:22:14;;;;;;;57.43;24.90;;;;;;;-3.74;84.20;99718.41;2236280;79;21628;-59
2020/12/02 04:25:15;;;;;;;62.35;25.12;;;;;;;-3.74;84.42;99720.97;2236403;80;21593;-60
2020/12/02 04:28:16;;;;;;;56.58;24.67;;;;;;;-3.72;84.04;99725.70;2236427;80;21141;-60
2020/12/02 04:31:17;;;;;;;58.00;25.08;;;;;;;-3.74;84.20;99725.25;2246300;78;21283;-60
2020/12/02 04:34:19;;;;;;;57.60;25.72;;;;;;;-3.74;84.18;99728.66;2253229;79;21256;-58
2020/12/02 04:37:20;;;;;;;56.68;24.12;;;;;;;-3.73;84.05;99734.23;2253427;78;21248;-60
2020/12/02 04:40:21;;;;;;;57.73;25.37;;;;;;;-3.75;84.16;99735.94;2253129;79;21273;-60
2020/12/02 04:43:23;;;;;;;59.42;23.95;;;;;;;-3.69;84.04;99730.87;2253556;79;21569;-60
2020/12/02 04:46:24;;;;;;;58.20;24.95;;;;;;;-3.67;83.92;99727.89;2253323;79;21610;-59
2020/12/02 04:49:25;;;;;;;56.25;23.10;;;;;;;-3.66;83.91;99733.89;2253242;78;21155;-59
2020/12/02 04:52:26;;;;;;;54.63;23.32;;;;;;;-3.61;83.95;99732.66;2253359;79;21712;-59
2020/12/02 04:55:28;;;;;;;65.03;26.57;;;;;;;-3.62;83.84;99739.91;2253416;79;21129;-60
2020/12/02 04:58:29;;;;;;;65.37;27.97;;;;;;;-3.64;83.72;99738.61;2253866;79;21297;-59
2020/12/02 05:01:31;;;;;;;61.37;24.27;;;;;;;-3.59;83.87;99738.65;2253651;79;21610;-59
2020/12/02 05:04:32;;;;;;;61.40;26.05;;;;;;;-3.60;83.70;99735.23;2253641;79;21268;-60
2020/12/02 05:07:33;;;;;;;56.37;22.82;;;;;;;-3.58;83.83;99733.53;2253464;79;21579;-59
2020/12/02 05:10:34;;;;;;;51.68;21.82;;;;;;;-3.54;83.90;99738.29;2253251;79;21277;-59
2020/12/02 05:13:35;;;;;;;53.83;21.90;;;;;;;-3.58;83.87;99745.08;2253362;79;21304;-58
2020/12/02 05:16:36;;;;;;;51.23;21.45;;;;;;;-3.60;83.72;99745.92;2253307;78;21712;-59
2020/12/02 05:19:38;;;;;;;52.10;21.90;;;;;;;-3.59;83.67;99739.53;2253093;79;21280;-59
2020/12/02 05:22:39;;;;;;;53.48;22.00;;;;;;;-3.57;83.80;99739.55;2253790;79;21276;-60
2020/12/02 05:25:40;;;;;;;50.98;20.43;;;;;;;-3.59;83.72;99742.09;2253679;79;21261;-59
2020/12/02 05:28:42;;;;;;;54.75;23.98;;;;;;;-3.60;83.99;99735.23;2253873;79;21677;-59
2020/12/02 05:31:43;;;;;;;52.78;21.33;;;;;;;-3.59;83.82;99740.81;2263509;78;21716;-59
2020/12/02 05:34:45;;;;;;;54.70;21.93;;;;;;;-3.57;83.93;99744.67;2269826;78;21300;-60
2020/12/02 05:37:46;;;;;;;56.03;23.13;;;;;;;-3.59;84.19;99744.66;2269404;78;21747;-59
2020/12/02 05:40:48;;;;;;;53.23;22.27;;;;;;;-3.60;83.94;99740.36;2269271;78;21707;-59
2020/12/02 05:43:49;;;;;;;57.03;23.62;;;;;;;-3.57;84.09;99744.67;2269040;78;21271;-60
2020/12/02 05:46:51;;;;;;;52.78;22.32;;;;;;;-3.56;83.97;99736.99;2269212;78;21247;-60
2020/12/02 05:49:52;;;;;;;53.30;22.37;;;;;;;-3.47;83.94;99740.51;2269146;78;21273;-59
2020/12/02 05:52:53;;;;;;;51.37;22.32;;;;;;;-3.39;83.96;99739.74;2269904;78;21305;-59
2020/12/02 05:55:55;;;;;;;53.38;23.55;;;;;;;-3.31;83.90;99738.52;2269515;78;21114;-59
2020/12/02 05:58:56;;;;;;;54.40;23.90;;;;;;;-3.27;83.64;99737.71;2269499;78;21692;-60
2020/12/02 06:01:57;;;;;;;55.90;23.67;;;;;;;-3.23;83.53;99739.87;2269317;78;21303;-59
2020/12/02 06:04:58;;;;;;;55.50;24.05;;;;;;;-3.23;83.36;99742.03;2246295;78;21256;-60
2020/12/02 06:08:00;;;;;;;70.57;28.38;;;;;;;-3.29;83.32;99747.52;2268990;78;21249;-60
2020/12/02 06:11:01;;;;;;;55.35;23.05;;;;;;;-3.31;83.52;99744.50;2269275;78;21145;-59
2020/12/02 06:14:02;;;;;;;58.75;22.30;;;;;;;-3.32;83.44;99747.05;2269230;78;21546;-60
2020/12/02 06:17:04;;;;;;;53.63;22.27;;;;;;;-3.34;83.35;99743.19;2269356;78;21590;-59
2020/12/02 06:20:05;;;;;;;51.33;22.60;;;;;;;-3.34;83.40;99744.91;2269424;78;21122;-59
2020/12/02 06:23:07;;;;;;;48.42;20.35;;;;;;;-3.34;83.43;99739.78;2269087;78;21157;-59
2020/12/02 06:26:08;;;;;;;46.25;20.12;;;;;;;-3.41;83.29;99731.58;2269500;78;21255;-60
2020/12/02 06:29:09;;;;;;;53.23;21.80;;;;;;;-3.43;83.45;99732.85;2269638;78;21268;-60
2020/12/02 06:32:10;;;;;;;54.73;21.93;;;;;;;-3.43;83.49;99740.95;2258066;78;21554;-60
2020/12/02 06:35:12;;;;;;;55.33;24.10;;;;;;;-3.42;83.52;99742.28;2253448;79;21688;-60
2020/12/02 06:38:13;;;;;;;62.43;25.75;;;;;;;-3.37;83.36;99737.19;2253483;79;21272;-60
2020/12/02 06:41:14;;;;;;;53.00;22.93;;;;;;;-3.34;83.45;99738.50;2253416;78;21139;-60
2020/12/02 06:44:15;;;;;;;54.73;22.90;;;;;;;-3.29;83.33;99738.53;2253118;79;21277;-59
2020/12/02 06:47:17;;;;;;;50.55;22.22;;;;;;;-3.29;83.28;99734.69;2253240;79;21745;-59
2020/12/02 06:50:18;;;;;;;48.33;19.05;;;;;;;-3.29;83.11;99735.53;2253388;79;21574;-59
2020/12/02 06:53:19;;;;;;;50.58;20.55;;;;;;;-3.33;83.05;99733.38;2252973;79;21269;-60
2020/12/02 06:56:20;;;;;;;52.33;22.02;;;;;;;-3.38;83.14;99733.73;2253538;79;21265;-60
2020/12/02 06:59:24;;;;;;;50.55;21.77;;;;;;;-3.34;83.42;99741.06;2253589;79;21126;-59
2020/12/02 07:02:25;;;;;;;54.45;21.90;;;;;;;-3.29;83.39;99743.23;2253041;79;21753;-59
2020/12/02 07:05:34;;;;;;;51.77;21.90;;;;;;;-3.29;83.25;99742.38;2253239;79;21717;-60
2020/12/02 07:08:36;;;;;;;49.48;20.70;;;;;;;-3.25;83.33;99750.13;2253683;79;21261;-60
2020/12/02 07:11:38;;;;;;;52.45;21.45;;;;;;;-3.23;83.12;99747.56;2253122;78;21288;-60
2020/12/02 07:14:40;;;;;;;49.55;20.43;;;;;;;-3.20;83.14;99745.91;2253747;79;21709;-59
2020/12/02 07:17:46;;;;;;;51.40;20.65;;;;;;;-3.15;83.11;99736.95;2253127;79;21723;-59
2020/12/02 07:20:56;;;;;;;50.73;20.23;;;;;;;-3.13;82.88;99739.13;2253260;79;21724;-60
2020/12/02 07:24:09;;;;;;;50.28;19.82;;;;;;;-3.13;82.89;99750.69;2253640;79;21115;-59
2020/12/02 07:30:52;;;;;;;;;;;;;;;;;;;;;
2020/12/02 07:33:55;;;;;;;52.35;21.52;;;;;;;-2.91;82.89;99740.60;2260575;79;22734;-59
2020/12/02 07:36:58;;;;;;;51.50;21.02;;;;;;;-2.91;82.71;99744.45;2227482;80;21142;-59
2020/12/02 07:40:09;;;;;;;49.13;20.00;;;;;;;-2.86;82.92;99742.77;2227883;80;21253;-60
2020/12/02 07:43:23;;;;;;;53.48;22.77;;;;;;;-2.79;82.83;99741.97;2227670;80;21123;-59
2020/12/02 07:46:22;;;;;;;52.62;21.23;;;;;;;-2.76;82.66;99735.56;2226730;80;21264;-59
2020/12/02 07:49:24;;;;;;;53.80;21.50;;;;;;;-2.74;82.69;99733.88;2227530;80;21142;-58
2020/12/02 07:52:27;;;;;;;54.15;22.45;;;;;;;-2.75;82.71;99736.45;2227815;80;21289;-59
2020/12/02 07:55:39;;;;;;;53.48;22.27;;;;;;;-2.71;82.78;99736.91;2227220;80;21126;-61
2020/12/02 07:58:42;;;;;;;;;;;;;;;-2.70;82.66;99736.91;2230129;80;21589;-60
2020/12/02 08:01:52;;;;;;;55.55;23.25;;;;;;;-2.76;82.70;99733.00;2227759;80;20119;-60
2020/12/02 08:04:54;;;;;;;;;;;;;;;-2.76;82.97;99733.44;2230018;80;21296;-59
2020/12/02 08:08:02;;;;;;;59.00;23.15;;;;;;;-2.69;82.80;99743.75;2197503;80;20282;-61
2020/12/02 08:11:10;;;;;;;54.23;23.80;;;;;;;-2.75;82.65;99740.30;2227439;80;21712;-60
2020/12/02 08:14:12;;;;;;;55.40;22.65;;;;;;;-2.76;82.76;99733.00;2227485;80;21134;-60
2020/12/02 08:20:45;;;;;;;53.60;23.18;;;;;;;-2.76;82.50;99741.14;2226429;80;20187;-60
2020/12/02 08:23:54;;;;;;;57.70;25.10;;;;;;;-2.83;82.61;99735.96;2227348;80;21613;-61
2020/12/02 08:26:59;;;;;;;58.90;23.75;;;;;;;-2.82;82.73;99740.23;2227446;80;21134;-60
2020/12/02 08:30:08;;;;;;;65.28;26.95;;;;;;;-2.70;82.52;99739.89;2227603;80;21300;-60
2020/12/02 08:33:08;;;;;;;57.25;23.05;;;;;;;-2.64;82.53;99742.52;2215789;80;21729;-60
2020/12/02 08:36:12;;;;;;;69.73;26.97;;;;;;;-2.57;81.96;99740.44;2211193;81;21281;-60
2020/12/02 08:39:14;;;;;;;49.48;20.52;;;;;;;-2.58;82.03;99737.42;2210447;81;21318;-60
2020/12/02 08:42:16;;;;;;;55.28;21.75;;;;;;;-2.53;81.67;99744.75;2210982;80;21143;-60
2020/12/02 08:45:28;;;;;;;52.48;20.95;;;;;;;-2.56;81.72;99739.56;2210006;81;21277;-61
2020/12/02 08:48:34;;;;;;;63.08;22.07;;;;;;;-2.55;81.42;99740.44;2209833;81;21131;-60
2020/12/02 08:51:40;;;;;;;48.83;21.07;;;;;;;-2.52;81.88;99741.74;2210263;81;21150;-59
2020/12/02 08:54:52;;;;;;;50.78;21.73;;;;;;;-2.48;81.32;99737.91;2209927;80;21273;-60
2020/12/02 08:57:54;;;;;;;59.75;24.57;;;;;;;-2.41;81.65;99739.23;2209696;80;21269;-61
2020/12/02 09:00:59;;;;;;;50.78;20.88;;;;;;;-2.36;81.58;99729.84;2187921;81;21266;-59
2020/12/02 09:04:10;;;;;;;71.50;25.60;;;;;;;-2.34;81.45;99725.16;2210221;80;21693;-61
2020/12/02 09:07:13;;;;;;;74.30;26.57;;;;;;;-2.36;81.23;99724.27;2209748;81;21266;-61
2020/12/02 09:10:22;;;;;;;80.25;29.75;;;;;;;-2.37;81.31;99720.41;2209984;81;21304;-60
2020/12/02 09:13:24;;;;;;;83.52;27.90;;;;;;;-2.31;81.58;99727.73;2209775;81;21741;-60
2020/12/02 09:16:30;;;;;;;82.25;30.17;;;;;;;-2.32;80.85;99711.87;2210466;81;21708;-60
2020/12/02 09:19:32;;;;;;;61.35;23.27;;;;;;;-2.31;80.87;99717.90;2209901;80;21309;-60
2020/12/02 09:22:34;;;;;;;50.25;22.15;;;;;;;-2.30;81.02;99717.02;2210571;80;21319;-59
2020/12/02 09:25:38;;;;;;;61.68;26.65;;;;;;;-2.28;81.00;99711.48;2210235;81;21296;-60
2020/12/02 09:28:39;;;;;;;73.17;27.93;;;;;;;-2.23;81.39;99712.34;2210211;81;21772;-60
2020/12/02 09:31:41;;;;;;;53.60;22.05;;;;;;;-2.17;81.07;99712.41;2210767;80;21305;-60
2020/12/02 09:34:47;;;;;;;50.45;22.27;;;;;;;-2.16;80.63;99703.81;2220606;80;21681;-59
2020/12/02 09:37:49;;;;;;;56.63;24.92;;;;;;;-2.14;80.73;99696.98;2220827;80;21292;-60
2020/12/02 09:40:51;;;;;;;52.83;22.50;;;;;;;-2.06;81.10;99700.87;2220451;80;21597;-59
2020/12/02 09:44:00;;;;;;;60.38;25.43;;;;;;;-2.05;79.84;99697.86;2220457;80;21296;-60
2020/12/02 09:47:00;;;;;;;58.55;23.38;;;;;;;-2.10;80.13;99695.27;2220224;80;21300;-60
2020/12/02 09:50:02;;;;;;;54.03;22.70;;;;;;;-2.20;79.92;99684.52;2220467;80;21281;-60
2020/12/02 09:53:03;;;;;;;53.20;22.20;;;;;;;-2.28;80.08;99684.50;2220411;80;21681;-60
2020/12/02 09:56:07;;;;;;;65.10;24.30;;;;;;;-2.32;80.12;99684.05;2220425;80;21268;-59
2020/12/02 09:59:11;;;;;;;52.38;23.02;;;;;;;-2.39;80.17;99680.58;2220699;80;21153;-60
2020/12/02 10:02:12;;;;;;;64.10;26.23;;;;;;;-2.44;80.04;99677.98;2220467;80;21130;-59
2020/12/02 10:05:13;;;;;;;56.37;22.85;;;;;;;-2.41;80.37;99674.58;2220835;80;21678;-60
2020/12/02 10:08:16;;;;;;;46.28;19.02;;;;;;;-2.42;80.05;99672.01;2220821;80;21741;-60
2020/12/02 10:11:19;;;;;;;44.30;18.65;;;;;;;-2.46;79.83;99665.98;2220527;80;21324;-61
2020/12/02 10:14:22;;;;;;;48.35;20.95;;;;;;;-2.50;80.44;99666.81;2220710;80;21554;-59
2020/12/02 10:17:26;;;;;;;43.40;18.73;;;;;;;-2.56;79.82;99647.52;2220424;80;21589;-60
2020/12/02 10:20:27;;;;;;;44.88;18.73;;;;;;;-2.56;79.82;99647.52;2220380;80;21187;-60
2020/12/02 10:23:33;;;;;;;46.48;19.82;;;;;;;-2.56;80.02;99654.78;2220443;80;21682;-60
2020/12/02 10:26:34;;;;;;;45.33;19.55;;;;;;;-2.58;80.18;99639.80;2220750;80;21268;-60
2020/12/02 10:29:36;;;;;;;43.83;18.02;;;;;;;-2.55;79.45;99641.53;2221080;80;21292;-59
2020/12/02 10:32:38;;;;;;;46.63;20.00;;;;;;;-2.62;79.64;99646.62;2217511;80;21289;-60
2020/12/02 10:35:41;;;;;;;47.30;21.15;;;;;;;-2.67;80.24;99641.02;2209873;81;21292;-60
2020/12/02 10:38:43;;;;;;;51.40;22.73;;;;;;;-2.63;80.65;99633.36;2187760;81;21277;-60
2020/12/02 10:41:44;;;;;;;50.50;23.07;;;;;;;-2.66;80.14;99629.91;2209913;81;21570;-60
2020/12/02 10:44:47;;;;;;;48.70;20.80;;;;;;;-2.66;80.77;99628.22;2210176;80;21293;-60
2020/12/02 10:47:50;;;;;;;52.83;21.65;;;;;;;-2.57;80.56;99626.52;2209826;81;21293;-60
2020/12/02 10:54:23;;;;;;;47.78;21.07;;;;;;;-2.58;80.38;99624.39;2209901;81;21257;-58
2020/12/02 10:57:24;;;;;;;45.65;20.45;;;;;;;-2.52;80.55;99625.70;2209870;81;21716;-57
2020/12/02 11:00:26;;;;;;;42.13;18.80;;;;;;;-2.50;80.33;99620.56;2210175;80;21639;-58
2020/12/02 11:03:27;;;;;;;43.00;18.92;;;;;;;-2.50;80.03;99620.16;2210182;81;21264;-58
2020/12/02 11:06:28;;;;;;;43.78;20.12;;;;;;;-2.51;80.20;99616.30;2209886;80;21554;-58
2020/12/02 11:09:30;;;;;;;45.05;19.00;;;;;;;-2.52;80.42;99615.42;2209900;81;21662;-58
2020/12/02 11:12:31;;;;;;;46.87;19.43;;;;;;;-2.51;80.29;99608.16;2210502;80;21158;-58
2020/12/02 11:15:33;;;;;;;45.43;20.52;;;;;;;-2.47;79.95;99602.59;2209935;81;21709;-58
2020/12/02 11:18:34;;;;;;;44.85;18.73;;;;;;;-2.52;79.98;99601.73;2209728;81;21158;-58
2020/12/02 11:21:40;;;;;;;42.80;17.98;;;;;;;-2.50;79.75;99602.58;2209902;81;21272;-58
2020/12/02 11:24:41;;;;;;;48.28;21.27;;;;;;;-2.52;79.97;99596.59;2210150;80;21118;-58
2020/12/02 11:27:43;;;;;;;47.48;21.30;;;;;;;-2.54;80.18;99590.16;2209751;80;21693;-59
2020/12/02 11:30:44;;;;;;;45.70;19.80;;;;;;;-2.54;80.29;99590.16;2210408;81;21516;-59
2020/12/02 11:33:45;;;;;;;47.43;20.88;;;;;;;-2.50;80.08;99589.73;2209818;80;21597;-58
2020/12/02 11:36:46;;;;;;;44.80;20.12;;;;;;;-2.57;79.90;99581.56;2209700;81;21610;-59
2020/12/02 11:39:48;;;;;;;46.75;20.17;;;;;;;-2.58;79.72;99584.58;2209615;81;21596;-59
2020/12/02 11:42:49;;;;;;;48.48;21.45;;;;;;;-2.61;79.87;99580.71;2209574;81;21273;-59
2020/12/02 11:45:50;;;;;;;46.10;20.20;;;;;;;-2.63;80.00;99586.25;2209623;80;21292;-58
2020/12/02 11:48:51;;;;;;;48.38;20.05;;;;;;;-2.65;80.16;99580.27;2210090;81;21139;-59
2020/12/02 11:51:53;;;;;;;57.43;24.15;;;;;;;-2.66;80.33;99581.11;2210078;81;21297;-59
2020/12/02 11:54:55;;;;;;;48.10;21.15;;;;;;;-2.59;80.36;99581.56;2209761;81;21139;-59
2020/12/02 11:57:56;;;;;;;77.80;29.07;;;;;;;-2.55;79.96;99571.73;2210232;81;21316;-59
2020/12/02 12:00:57;;;;;;;74.95;29.30;;;;;;;-2.59;80.13;99575.58;2209870;81;21147;-59
2020/12/02 12:03:58;;;;;;;72.75;28.83;;;;;;;-2.55;80.29;99570.89;2209702;81;21147;-59
2020/12/02 12:07:00;;;;;;;94.03;32.20;;;;;;;-2.49;80.44;99574.33;2209825;81;21724;-59
2020/12/02 12:10:01;;;;;;;89.85;30.68;;;;;;;-2.39;80.06;99570.52;2209598;81;21277;-58
2020/12/02 12:13:02;;;;;;;48.80;21.23;;;;;;;-2.37;79.91;99561.09;2210228;81;21158;-59
2020/12/02 12:16:05;;;;;;;;;;;;;;;-2.42;79.78;99560.23;2212244;80;21269;-59
2020/12/02 12:19:07;;;;;;;73.67;25.97;;;;;;;-2.49;79.56;99552.48;2210468;80;20151;-57
2020/12/02 12:22:08;;;;;;;77.58;26.30;;;;;;;-2.55;79.46;99545.20;2209921;81;21725;-58
2020/12/02 12:25:09;;;;;;;73.60;24.00;;;;;;;-2.69;79.37;99534.42;2210111;81;21155;-57
2020/12/02 12:28:10;;;;;;;86.90;29.30;;;;;;;-2.66;79.62;99547.31;2210030;81;21689;-59
2020/12/02 12:31:12;;;;;;;54.25;23.65;;;;;;;-2.67;79.96;99544.30;2210032;81;21507;-58
2020/12/02 12:34:13;;;;;;;60.00;22.67;;;;;;;-2.65;79.74;99549.00;2216927;80;21724;-58
2020/12/02 12:37:14;;;;;;;50.70;21.52;;;;;;;-2.59;79.80;99546.88;2220518;80;21158;-59
2020/12/02 12:40:16;;;;;;;79.45;28.40;;;;;;;-2.57;79.49;99549.05;2220775;80;21174;-57
2020/12/02 12:43:17;;;;;;;72.60;26.93;;;;;;;-2.61;79.73;99538.33;2220490;80;21115;-57
2020/12/02 12:46:18;;;;;;;93.12;29.95;;;;;;;-2.56;80.12;99537.91;2220494;80;21181;-57
2020/12/02 12:49:20;;;;;;;65.03;25.50;;;;;;;-2.55;79.67;99533.20;2220804;80;21138;-58
2020/12/02 12:52:21;;;;;;;60.45;24.80;;;;;;;-2.58;79.78;99529.78;2220500;80;21173;-57
2020/12/02 12:55:22;;;;;;;66.60;27.15;;;;;;;-2.57;79.63;99527.63;2220429;80;21154;-57
2020/12/02 12:58:23;;;;;;;46.63;21.62;;;;;;;-2.55;80.26;99522.08;2220499;80;21138;-59
2020/12/02 13:01:24;;;;;;;51.35;22.82;;;;;;;-2.47;79.98;99521.66;2220472;80;21130;-57
2020/12/02 13:04:26;;;;;;;50.25;22.00;;;;;;;-2.48;79.82;99512.26;2220454;80;21114;-59
2020/12/02 13:07:28;;;;;;;57.95;23.50;;;;;;;-2.52;79.42;99510.53;2220869;80;21134;-59
2020/12/02 13:10:29;;;;;;;56.63;23.92;;;;;;;-2.57;79.30;99505.78;2220889;80;21181;-59
2020/12/02 13:13:30;;;;;;;57.00;22.35;;;;;;;-2.61;79.28;99500.64;2220337;80;21147;-58
2020/12/02 13:16:31;;;;;;;58.95;24.47;;;;;;;-2.67;79.04;99499.75;2220836;80;21293;-58
2020/12/02 13:19:32;;;;;;;56.70;23.90;;;;;;;-2.69;79.61;99495.91;2220626;80;21715;-58
2020/12/02 13:22:33;;;;;;;81.97;29.27;;;;;;;-2.66;79.62;99493.78;2220460;80;21737;-59
2020/12/02 13:25:35;;;;;;;64.42;25.88;;;;;;;-2.67;79.79;99495.91;2220444;80;21575;-58
2020/12/02 13:28:36;;;;;;;64.12;25.48;;;;;;;-2.65;79.62;99495.50;2220642;80;21103;-58
2020/12/02 13:31:37;;;;;;;61.97;24.07;;;;;;;-2.66;79.40;99495.06;2221091;80;21284;-59
2020/12/02 13:34:39;;;;;;;45.75;19.77;;;;;;;-2.69;79.37;99491.20;2213172;80;21178;-59
2020/12/02 13:37:40;;;;;;;50.88;22.05;;;;;;;-2.73;79.43;99492.92;2209808;81;21740;-61
2020/12/02 13:40:41;;;;;;;63.30;25.70;;;;;;;-2.80;79.46;99488.61;2209842;81;21737;-61
2020/12/02 13:43:42;;;;;;;44.97;19.83;;;;;;;-2.80;79.36;99480.91;2210456;80;21264;-61
2020/12/02 13:46:44;;;;;;;56.08;25.23;;;;;;;-2.80;79.36;99480.91;2209948;81;21264;-60
2020/12/02 13:49:45;;;;;;;54.53;23.70;;;;;;;-2.89;79.64;99470.16;2210109;81;21174;-60
2020/12/02 13:52:46;;;;;;;54.25;22.87;;;;;;;-2.91;79.96;99471.02;2209686;80;21582;-61
2020/12/02 13:55:47;;;;;;;79.85;29.87;;;;;;;-2.95;80.06;99470.14;2209931;81;21289;-60
2020/12/02 13:58:49;;;;;;;51.30;21.12;;;;;;;-2.89;80.17;99468.02;2210226;80;21308;-61
2020/12/02 14:01:50;;;;;;;77.80;26.45;;;;;;;-2.90;80.10;99466.30;2209950;81;21169;-60
2020/12/02 14:04:51;;;;;;;54.95;21.00;;;;;;;-2.90;79.95;99459.87;2209658;81;21162;-61
2020/12/02 14:07:52;;;;;;;56.77;21.95;;;;;;;-2.92;79.75;99465.45;2210046;81;21578;-61
2020/12/02 14:10:53;;;;;;;57.65;23.05;;;;;;;-2.96;79.58;99449.16;2209713;80;21301;-60